Milan Army Ammunition Plant, Tennessee
Current Conditions -  °F | °C
As of 2:53 PM on Thursday 18 Dec 2014 (Local Time) from KMKL Reporting Station
Overcast Overcast  
Wind Chill: 44°   Ceiling: 4300
Heat Index: 44°   Visibility: 10mi
Dew Point: 35°   Wind: 3mph
Humidity: 71%   Direction: 30°NNE
Pressure: 30.18"   Gusts: NA
Location:  35.9258°N, 88.7624°W
Report Text: KMKL 182053Z 03003KT 10SM OVC043 07/02 A3018 RMK AO2 SLP223 T00670017 56016
Loading
Personal Weather Stations






























Interactive Weather Map New forecast layout! Learn more

10-Day Weather Forecast

Advertisements
Track Severe Weather on mobile